Flight Track Log - Related Links

Times and Time Zones

All times are in EDT time to prevent confusion due to time zone crossing. See the N682RW flight status page for this flight to view local times or setup timezone preferences in your user account.

Time Position Orientation Groundspeed Altitude Reporting Facility
EDT Latitude Longitude Course Direction KTS MPH feet Rate Location/Type
Thu 07:17:00 PM 42.2356 -83.3317 50° Northeast 187 215 1,400  Level Cleveland Center
Thu 07:18:07 PM 42.2767 -83.2661 50° Northeast 233 268 3,600 2,173 Climbing Cleveland Center
Thu 07:19:07 PM 42.3161 -83.1861 56° Northeast 267 307 6,000 2,579 Climbing Cleveland Center
Thu 07:20:08 PM 42.2764 -83.1003 122° Southeast 301 346 8,800 1,967 Climbing Cleveland Center
Thu 07:21:09 PM 42.2014 -83.0975 178° South 306 352 10,000 1,488 Climbing Cleveland Center
Thu 07:22:09 PM 42.1311 -83.1592 213° Southwest 292 336 11,800 2,050 Climbing Cleveland Center
Thu 07:23:09 PM 42.0442 -83.2200 207° Southwest 311 358 14,100 2,250 Climbing Cleveland Center
Thu 07:24:09 PM 41.9619 -83.2694 204° Southwest 328 377 16,300 1,850 Climbing Cleveland Center
Thu 07:25:09 PM 41.8881 -83.3083 201° Southwest 323 372 17,800 1,700 Climbing Cleveland Center
Thu 07:26:09 PM 41.7994 -83.3436 197° South 323 372 19,700 1,400 Climbing Cleveland Center
Thu 07:27:09 PM 41.7069 -83.3758 195° South 336 387 20,600 800 Climbing Cleveland Center
Thu 07:28:09 PM 41.6042 -83.4017 191° South 357 411 21,300 900 Climbing Cleveland Center
Thu 07:29:09 PM 41.4986 -83.4528 200° South 386 444 22,400 1,350 Climbing Cleveland Center
Thu 07:30:09 PM 41.3931 -83.5061 201° Southwest 405 466 24,000 1,350 Climbing Cleveland Center
Thu 07:31:09 PM 41.2853 -83.5594 200° South 415 478 25,100 1,067 Climbing Cleveland Center
Thu 07:33:09 PM 41.0550 -83.6719 200° South 447 514 27,200 1,121 Climbing Indianapolis Center
Thu 07:34:11 PM 40.9183 -83.7394 200° South 462 532 28,500 1,113 Climbing Indianapolis Center
Thu 07:35:13 PM 40.7936 -83.7972 199° South 470 541 29,500 976 Climbing Indianapolis Center
Thu 07:36:14 PM 40.6647 -83.8494 197° South 483 556 30,500 732 Climbing Indianapolis Center
Thu 07:37:16 PM 40.5500 -83.9333 209° Southwest 471 542 31,000 242 Climbing Indianapolis Center
Thu 07:38:18 PM 40.4372 -84.0208 211° Southwest 470 541 31,000  Level Indianapolis Center
Thu 07:39:19 PM 40.3250 -84.1022 209° Southwest 461 531 31,000  Level Indianapolis Center
Thu 07:40:21 PM 40.2069 -84.1772 206° Southwest 471 542 31,000  Level Indianapolis Center
Thu 07:41:23 PM 40.0650 -84.1642 176° South 511 588 31,000  Level Indianapolis Center
Thu 07:42:24 PM 39.8986 -84.1275 170° South 519 597 31,000  Level Indianapolis Center
Thu 07:43:26 PM 39.7567 -84.0964 170° South 517 595 31,000  Level Indianapolis Center
Thu 07:44:28 PM 39.6144 -84.0661 171° South 517 595 31,000  Level Indianapolis Center
Thu 07:45:29 PM 39.4728 -84.0364 171° South 514 592 31,000  Level Indianapolis Center
Thu 07:46:31 PM 39.3317 -84.0056 170° South 512 589 31,000  Level Indianapolis Center
Thu 07:47:33 PM 39.1878 -83.9761 171° South 520 598 31,000 -49 Level Indianapolis Center
Thu 07:48:34 PM 39.0433 -83.9442 170° South 522 601 30,900  Descending Indianapolis Center
Thu 07:49:36 PM 38.8761 -83.9083 171° South 518 596 31,000 48 Climbing Indianapolis Center
Thu 07:50:38 PM 38.7336 -83.8792 171° South 515 593 31,000  Level Indianapolis Center
Thu 07:51:39 PM 38.6044 -83.8517 171° South 519 597 31,000  Level Indianapolis Center
Thu 07:52:41 PM 38.4389 -83.8169 171° South 516 594 31,000  Level Indianapolis Center
Thu 07:53:43 PM 38.2961 -83.7886 171° South 518 596 31,000  Level Indianapolis Center
Thu 07:54:44 PM 38.1544 -83.7592 171° South 515 593 31,000  Level Indianapolis Center
Thu 07:55:46 PM 38.0117 -83.7311 171° South 518 596 31,000  Level Indianapolis Center
Thu 07:56:48 PM 37.8706 -83.7017 171° South 517 595 31,000  Level Indianapolis Center
Thu 07:57:49 PM 37.7314 -83.6714 170° South 508 585 31,000  Level Indianapolis Center
Thu 07:58:51 PM 37.5681 -83.6386 171° South 509 586 31,000  Level Indianapolis Center
Thu 07:59:53 PM 37.4278 -83.6103 171° South 511 588 31,000  Level Indianapolis Center
Thu 08:00:55 PM 37.2869 -83.5828 171° South 513 590 31,000  Level Indianapolis Center
Thu 08:01:56 PM 37.1453 -83.5539 171° South 516 594 31,000  Level Indianapolis Center
Thu 08:02:58 PM 37.0031 -83.5264 171° South 518 596 31,000  Level Indianapolis Center
Thu 08:04:00 PM 36.8611 -83.4919 169° South 521 600 31,000  Level Indianapolis Center
Thu 08:05:02 PM 36.6978 -83.4450 167° South 520 598 31,000  Level Indianapolis Center
Thu 08:06:03 PM 36.5597 -83.3933 163° South 520 598 31,000  Level Indianapolis Center
Thu 08:07:05 PM 36.4217 -83.3422 163° South 519 597 31,000  Level Indianapolis Center
Thu 08:08:07 PM 36.2839 -83.2914 163° South 517 595 31,000  Level Indianapolis Center
Thu 08:09:09 PM 36.1467 -83.2342 161° South 519 597 31,000  Level Indianapolis Center
Thu 08:10:11 PM 35.9919 -83.1594 159° South 514 592 31,000  Level Indianapolis Center
Thu 08:11:13 PM 35.8578 -83.0969 159° South 516 594 31,000  Level Indianapolis Center
Thu 08:12:14 PM 35.7231 -83.0328 159° South 518 596 31,000  Level Indianapolis Center
Thu 08:13:33 PM 35.5303 -82.9950 171° South 502 578 31,000  Level Atlanta Center
Thu 08:14:33 PM 35.3903 -82.9814 175° South 507 583 31,000  Level Atlanta Center
Thu 08:15:33 PM 35.2503 -82.9631 174° South 507 583 31,000  Level Atlanta Center
Thu 08:16:33 PM 35.1147 -82.9444 174° South 501 577 31,000  Level Atlanta Center
Thu 08:17:33 PM 34.9725 -82.9286 175° South 501 577 31,000  Level Atlanta Center
Thu 08:18:33 PM 34.8283 -82.9078 173° South 506 582 31,000  Level Atlanta Center
Thu 08:19:33 PM 34.6947 -82.8919 174° South 501 577 31,000  Level Atlanta Center
Thu 08:20:33 PM 34.5692 -82.8758 174° South 501 577 31,000  Level Atlanta Center
Thu 08:21:33 PM 34.4208 -82.8578 174° South 496 571 31,000  Level Atlanta Center
Thu 08:22:33 PM 34.2769 -82.8447 176° South 502 578 31,000  Level Atlanta Center
Thu 08:23:33 PM 34.1411 -82.8367 177° South 502 578 31,000  Level Atlanta Center
Thu 08:24:33 PM 34.0033 -82.8261 176° South 497 572 31,000  Level Atlanta Center
Thu 08:25:33 PM 33.8653 -82.8156 176° South 497 572 31,000  Level Atlanta Center
Thu 08:26:33 PM 33.7253 -82.8025 176° South 503 579 31,000  Level Atlanta Center
Thu 08:27:33 PM 33.5875 -82.7944 177° South 497 572 31,000 -250 Level Atlanta Center
Thu 08:28:33 PM 33.4497 -82.7839 176° South 497 572 30,500 -500 Descending Atlanta Center
Thu 08:29:33 PM 33.3306 -82.7733 176° South 497 572 30,000 -250 Descending Atlanta Center
Thu 08:30:33 PM 33.1781 -82.7631 177° South 497 572 30,000  Level Atlanta Center
Thu 08:31:33 PM 33.0422 -82.7503 175° South 497 572 30,000  Level Atlanta Center
Thu 08:32:33 PM 32.9022 -82.7375 176° South 497 572 30,000  Level Atlanta Center
Thu 08:33:33 PM 32.7667 -82.7344 179° South 497 572 30,000  Level Atlanta Center
Thu 08:34:33 PM 32.6308 -82.7144 173° South 497 572 30,000  Level Atlanta Center
Thu 08:36:28 PM 32.3875 -82.6122 160° South 486 559 30,000  Level Jacksonville Center
Thu 08:37:28 PM 32.2600 -82.5633 162° South 486 559 30,000  Level Jacksonville Center
Thu 08:38:28 PM 32.1244 -82.5589 178° South 485 558 30,000  Level Jacksonville Center
Thu 08:39:28 PM 32.0053 -82.5544 178° South 485 558 30,000  Level Jacksonville Center
Thu 08:40:28 PM 31.8717 -82.5550 180° South 480 552 30,000  Level Jacksonville Center
Thu 08:41:28 PM 31.7403 -82.5581 181° South 475 547 30,000  Level Jacksonville Center
Thu 08:43:00 PM 31.5558 -82.5734 184° South  Level FlightAware Approximate
Thu 08:44:28 PM 31.3331 -82.5739 184° South 475 547 30,000  Level Jacksonville Center
Thu 08:45:28 PM 31.1994 -82.5867 185° South 480 552 30,000  Level Jacksonville Center
Thu 08:46:28 PM 31.0658 -82.6064 187° South 480 552 30,000  Level Jacksonville Center
Thu 08:47:28 PM 30.9386 -82.6214 186° South 480 552 30,000  Level Jacksonville Center
Thu 08:48:28 PM 30.8111 -82.6386 187° South 475 547 30,000  Level Jacksonville Center
Thu 08:49:28 PM 30.6839 -82.6533 186° South 475 547 30,000  Level Jacksonville Center
Thu 08:50:28 PM 30.5775 -82.6658 186° South 475 547 30,000 -150 Level Jacksonville Center
Thu 08:51:28 PM 30.4375 -82.6781 184° South 470 541 29,700 -600 Descending Jacksonville Center
Thu 08:52:28 PM 30.3039 -82.6881 184° South 475 547 28,800 -950 Descending Jacksonville Center
Thu 08:53:28 PM 30.1703 -82.6692 173° South 480 552 27,800 -950 Descending Jacksonville Center
Thu 08:54:28 PM 30.0364 -82.6047 157° South 469 540 26,900 -400 Descending Jacksonville Center
Thu 08:55:28 PM 29.9383 -82.5450 152° Southeast 462 532 27,000  Climbing Jacksonville Center
Thu 08:56:28 PM 29.8253 -82.4831 155° Southeast 451 519 26,900 -50 Descending Jacksonville Center
Thu 08:57:28 PM 29.7103 -82.4239 156° South 451 519 26,900 -50 Level Jacksonville Center
Thu 08:58:28 PM 29.5953 -82.3647 156° South 451 519 26,800 -1,050 Descending Jacksonville Center
Thu 08:59:28 PM 29.4700 -82.3439 172° South 444 511 24,800 -2,050 Descending Jacksonville Center
Thu 09:00:28 PM 29.3508 -82.3303 174° South 444 511 22,700 -2,150 Descending Jacksonville Center
Thu 09:01:28 PM 29.2381 -82.3167 174° South 438 504 20,500 -2,250 Descending Jacksonville Center
Thu 09:02:28 PM 29.1275 -82.3031 174° South 414 476 18,200 -2,250 Descending Jacksonville Center
Thu 09:03:28 PM 29.0208 -82.2919 175° South 404 465 16,000 -1,950 Descending Jacksonville Center
Thu 09:05:08 PM 28.8333 -82.2667 173° South 372 428 13,000 -1,125 Descending Tampa TRACON
Thu 09:06:08 PM 28.7500 -82.2667 180° South 329 379 13,000 -50 Level Tampa TRACON
Thu 09:07:08 PM 28.6500 -82.2500 172° South 318 366 12,900 -429 Descending Tampa TRACON
Thu 09:08:14 PM 28.5667 -82.2667 190° South 314 361 12,100 -857 Descending Tampa TRACON
Thu 09:09:14 PM 28.4833 -82.3167 208° Southwest 303 349 11,100 -1,000 Descending Tampa TRACON
Thu 09:10:14 PM 28.4667 -82.4000 257° West 293 337 10,100 -1,300 Descending Tampa TRACON
Thu 09:11:14 PM 28.4667 -82.5000 270° West 287 330 8,500 -1,450 Descending Tampa TRACON
Thu 09:12:14 PM 28.4333 -82.5833 246° West 278 320 7,200 -1,240 Descending Tampa TRACON
Thu 09:13:15 PM 28.4167 -82.6500 254° West 262 302 6,000 -1,190 Descending Tampa TRACON
Thu 09:14:15 PM 28.3667 -82.7167 230° Southwest 260 299 4,800 -1,000 Descending Tampa TRACON
Thu 09:15:15 PM 28.3000 -82.7667 213° Southwest 249 287 4,000 -526 Descending Tampa TRACON
Thu 09:16:09 PM 28.2500 -82.7500 164° South 233 268 3,800 -421 Descending Tampa TRACON
Thu 09:17:09 PM 28.1833 -82.7333 168° South 227 261 3,200 -400 Descending Tampa TRACON
Thu 09:18:09 PM 28.1167 -82.7333 180° South 222 255 3,000 -286 Descending Tampa TRACON
Thu 09:19:15 PM 28.0667 -82.7167 164° South 214 246 2,600 -667 Descending Tampa TRACON
Thu 09:20:15 PM 28.0000 -82.7000 168° South 178 205 1,600 -895 Descending Tampa TRACON
Thu 09:21:09 PM 27.9667 -82.7000 180° South 139 160 900 -684 Descending Tampa TRACON
Thu 09:22:09 PM 27.9333 -82.7000 180° South 134 154 300 -600 Descending Tampa TRACON
Thu 09:24:00 PM 27.9100 -82.6874 155° Southeast  Level Estimated
Thu 09:31:00 PM 27.9100 -82.6874 90° East  Level Estimated

Login

Don't have an account? Register now (free) for customized features, flight alerts, and more!